createdAt,value
2022-07-29T00:00:25.753Z,18.03
2022-07-29T00:01:25.911Z,18.03
2022-07-29T00:02:25.693Z,18.03
2022-07-29T00:03:25.678Z,18.03
2022-07-29T00:04:25.583Z,18.01
2022-07-29T00:05:25.586Z,18.03
2022-07-29T00:06:25.640Z,18.01
2022-07-29T00:07:25.632Z,18.01
2022-07-29T00:08:25.595Z,18.03
2022-07-29T00:09:25.691Z,18.01
2022-07-29T00:10:25.671Z,18.00
2022-07-29T00:11:25.846Z,17.98
2022-07-29T00:12:26.776Z,17.97
2022-07-29T00:13:32.269Z,17.95
2022-07-29T00:14:26.279Z,17.97
2022-07-29T00:15:25.723Z,17.95
2022-07-29T00:16:25.701Z,17.94
2022-07-29T00:17:25.662Z,17.95
2022-07-29T00:18:25.722Z,17.94
2022-07-29T00:19:25.784Z,17.95
2022-07-29T00:20:25.763Z,17.94
2022-07-29T00:21:32.972Z,17.94
2022-07-29T00:22:25.730Z,17.90
2022-07-29T00:23:25.162Z,17.92
2022-07-29T00:24:25.166Z,17.92
2022-07-29T00:25:25.152Z,17.90
2022-07-29T00:26:25.143Z,17.90
2022-07-29T00:27:25.120Z,17.87
2022-07-29T00:28:25.134Z,17.87
2022-07-29T00:29:34.214Z,17.86
2022-07-29T00:30:26.107Z,17.86
2022-07-29T00:31:25.124Z,17.86
2022-07-29T00:32:25.091Z,17.86
2022-07-29T00:33:25.054Z,17.85
2022-07-29T00:34:25.044Z,17.85
2022-07-29T00:35:25.022Z,17.86
2022-07-29T00:36:25.038Z,17.85
2022-07-29T00:37:25.462Z,17.85
2022-07-29T00:38:25.003Z,17.83
2022-07-29T00:39:24.998Z,17.80
2022-07-29T00:40:24.983Z,17.80
2022-07-29T00:41:24.963Z,17.80
2022-07-29T00:42:24.963Z,17.80
2022-07-29T00:43:24.963Z,17.80
2022-07-29T00:44:24.935Z,17.79
2022-07-29T00:45:24.915Z,17.79
2022-07-29T00:46:24.994Z,17.78
2022-07-29T00:47:24.887Z,17.78
2022-07-29T00:48:24.907Z,17.78
2022-07-29T00:49:24.913Z,17.76
2022-07-29T00:50:27.119Z,17.78
2022-07-29T00:51:24.848Z,17.76
2022-07-29T00:52:24.847Z,17.74
2022-07-29T00:53:24.844Z,17.74
2022-07-29T00:54:24.827Z,17.74
2022-07-29T00:55:24.806Z,17.74
2022-07-29T00:56:24.807Z,17.71
2022-07-29T00:57:24.859Z,17.71
2022-07-29T00:58:24.799Z,17.70
2022-07-29T00:59:24.778Z,17.68
2022-07-29T01:00:26.290Z,17.68
2022-07-29T01:01:24.816Z,17.67
2022-07-29T01:02:24.845Z,17.67
2022-07-29T01:03:24.741Z,17.65
2022-07-29T01:04:24.719Z,17.65
2022-07-29T01:05:24.720Z,17.63
2022-07-29T01:06:24.686Z,17.64
2022-07-29T01:07:24.679Z,17.63
2022-07-29T01:08:24.692Z,17.59
2022-07-29T01:09:45.144Z,17.59
2022-07-29T01:10:25.999Z,17.59
2022-07-29T01:11:24.632Z,17.60
2022-07-29T01:12:24.639Z,17.60
2022-07-29T01:13:24.622Z,17.60
2022-07-29T01:14:24.620Z,17.59
2022-07-29T01:15:24.586Z,17.60
2022-07-29T01:16:24.700Z,17.59
2022-07-29T01:17:24.723Z,17.57
2022-07-29T01:18:24.560Z,17.60
2022-07-29T01:19:24.560Z,17.60
2022-07-29T01:20:24.539Z,17.60
2022-07-29T01:21:25.523Z,17.60
2022-07-29T01:22:24.523Z,17.60
2022-07-29T01:23:24.529Z,17.60
2022-07-29T01:24:24.494Z,17.60
2022-07-29T01:25:31.783Z,17.60
2022-07-29T01:26:24.477Z,17.60
2022-07-29T01:27:24.465Z,17.59
2022-07-29T01:28:24.445Z,17.59
2022-07-29T01:29:24.435Z,17.56
2022-07-29T01:30:24.436Z,17.54
2022-07-29T01:31:26.426Z,17.56
2022-07-29T01:32:28.969Z,17.57
2022-07-29T01:33:25.383Z,17.56
2022-07-29T01:34:24.395Z,17.56
2022-07-29T01:35:24.364Z,17.57
2022-07-29T01:36:24.355Z,17.54
2022-07-29T01:37:24.335Z,17.54
2022-07-29T01:38:24.336Z,17.51
2022-07-29T01:39:24.329Z,17.52
2022-07-29T01:40:24.314Z,17.51
2022-07-29T01:41:24.287Z,17.52
2022-07-29T01:42:24.297Z,17.52
2022-07-29T01:43:24.268Z,17.52
2022-07-29T01:44:24.288Z,17.52
2022-07-29T01:45:24.246Z,17.52
2022-07-29T01:46:24.264Z,17.52
2022-07-29T01:47:24.271Z,17.51
2022-07-29T01:48:24.231Z,17.51
2022-07-29T01:49:24.296Z,17.48
2022-07-29T01:50:24.195Z,17.48
2022-07-29T01:51:24.175Z,17.48
2022-07-29T01:52:24.167Z,17.48
2022-07-29T01:53:24.160Z,17.48
2022-07-29T01:54:24.161Z,17.46
2022-07-29T01:55:24.148Z,17.45
2022-07-29T01:56:24.147Z,17.45
2022-07-29T01:57:24.122Z,17.44
2022-07-29T01:58:24.120Z,17.44
2022-07-29T01:59:24.116Z,17.41
2022-07-29T02:00:24.087Z,17.41
2022-07-29T02:01:24.117Z,17.39
2022-07-29T02:02:24.076Z,17.39
2022-07-29T02:03:24.049Z,17.38
2022-07-29T02:04:29.181Z,17.34
2022-07-29T02:05:25.090Z,17.33
2022-07-29T02:06:24.020Z,17.33
2022-07-29T02:07:23.999Z,17.31
2022-07-29T02:08:24.012Z,17.30
2022-07-29T02:09:23.992Z,17.30
2022-07-29T02:10:25.999Z,17.29
2022-07-29T02:11:23.959Z,17.27
2022-07-29T02:12:23.960Z,17.26
2022-07-29T02:13:23.940Z,17.24
2022-07-29T02:14:23.932Z,17.23
2022-07-29T02:15:23.932Z,17.23
2022-07-29T02:16:23.984Z,17.22
2022-07-29T02:17:23.898Z,17.20
2022-07-29T02:18:23.908Z,17.22
2022-07-29T02:19:23.861Z,17.20
2022-07-29T02:20:23.860Z,17.22
2022-07-29T02:21:23.861Z,17.19
2022-07-29T02:22:23.850Z,17.20
2022-07-29T02:23:23.825Z,17.19
2022-07-29T02:24:23.824Z,17.19
2022-07-29T02:25:23.803Z,17.19
2022-07-29T02:26:24.143Z,17.19
2022-07-29T02:27:23.776Z,17.19
2022-07-29T02:28:23.772Z,17.19
2022-07-29T02:29:23.752Z,17.15
2022-07-29T02:30:23.752Z,17.15
2022-07-29T02:31:23.793Z,17.14
2022-07-29T02:32:23.737Z,17.11
2022-07-29T02:33:23.724Z,17.12
2022-07-29T02:34:23.713Z,17.12
2022-07-29T02:35:23.698Z,17.09
2022-07-29T02:36:23.696Z,17.08
2022-07-29T02:37:23.664Z,17.08
2022-07-29T02:38:23.675Z,17.08
2022-07-29T02:39:23.655Z,17.06
2022-07-29T02:40:23.644Z,17.06
2022-07-29T02:41:23.645Z,17.04
2022-07-29T02:42:23.624Z,17.05
2022-07-29T02:43:23.605Z,17.04
2022-07-29T02:44:23.604Z,17.02
2022-07-29T02:45:23.577Z,17.01
2022-07-29T02:46:28.248Z,17.01
2022-07-29T02:47:24.585Z,16.97
2022-07-29T02:48:23.556Z,16.99
2022-07-29T02:49:23.565Z,17.01
2022-07-29T02:50:23.550Z,17.01
2022-07-29T02:51:43.687Z,16.99
2022-07-29T02:52:24.508Z,16.97
2022-07-29T02:53:23.509Z,16.97
2022-07-29T02:54:23.488Z,16.96
2022-07-29T02:55:23.468Z,16.94
2022-07-29T02:56:23.469Z,16.93
2022-07-29T02:57:23.457Z,16.91
2022-07-29T02:58:23.448Z,16.89
2022-07-29T02:59:23.429Z,16.89
2022-07-29T03:00:23.420Z,16.87
2022-07-29T03:01:23.437Z,16.86
2022-07-29T03:02:23.432Z,16.84
2022-07-29T03:03:23.380Z,16.83
2022-07-29T03:04:23.422Z,16.81
2022-07-29T03:05:23.358Z,16.79
2022-07-29T03:06:31.053Z,16.78
2022-07-29T03:07:24.340Z,16.76
2022-07-29T03:08:23.328Z,16.75
2022-07-29T03:09:23.320Z,16.76
2022-07-29T03:10:23.308Z,16.76
2022-07-29T03:11:23.281Z,16.75
2022-07-29T03:12:24.308Z,16.76
2022-07-29T03:13:23.269Z,16.75
2022-07-29T03:14:23.260Z,16.75
2022-07-29T03:15:23.241Z,16.76
2022-07-29T03:16:23.271Z,16.75
2022-07-29T03:17:23.244Z,16.75
2022-07-29T03:18:23.219Z,16.74
2022-07-29T03:19:23.211Z,16.72
2022-07-29T03:20:23.199Z,16.72
2022-07-29T03:21:23.180Z,16.72
2022-07-29T03:22:23.180Z,16.71
2022-07-29T03:23:23.259Z,16.71
2022-07-29T03:24:23.163Z,16.71
2022-07-29T03:25:23.136Z,16.69
2022-07-29T03:26:23.132Z,16.69
2022-07-29T03:27:23.204Z,16.69
2022-07-29T03:28:23.101Z,16.68
2022-07-29T03:29:23.104Z,16.68
2022-07-29T03:30:23.123Z,16.65
2022-07-29T03:31:23.157Z,16.61
2022-07-29T03:32:25.157Z,16.61
2022-07-29T03:33:23.124Z,16.61
2022-07-29T03:34:23.432Z,16.60
2022-07-29T03:35:23.132Z,16.57
2022-07-29T03:36:23.165Z,16.56
2022-07-29T03:37:23.203Z,16.56
2022-07-29T03:38:23.122Z,16.54
2022-07-29T03:39:23.043Z,16.53
2022-07-29T03:40:23.214Z,16.53
2022-07-29T03:41:23.429Z,16.54
2022-07-29T03:42:23.293Z,16.51
2022-07-29T03:43:23.221Z,16.51
2022-07-29T03:44:23.256Z,16.51
2022-07-29T03:45:23.013Z,16.51
2022-07-29T03:46:23.328Z,16.49
2022-07-29T03:47:23.356Z,16.47
2022-07-29T03:48:23.896Z,16.49
2022-07-29T03:49:23.276Z,16.49
2022-07-29T03:50:23.345Z,16.49
2022-07-29T03:51:33.879Z,16.49
2022-07-29T03:52:23.846Z,16.49
2022-07-29T03:53:23.175Z,16.51
2022-07-29T03:54:23.358Z,16.53
2022-07-29T03:55:23.046Z,16.53
2022-07-29T03:56:23.096Z,16.53
2022-07-29T03:57:22.903Z,16.53
2022-07-29T03:58:23.161Z,16.53
2022-07-29T03:59:22.950Z,16.56
2022-07-29T04:00:22.967Z,16.57
2022-07-29T04:01:22.897Z,16.58
2022-07-29T04:02:26.212Z,16.58
2022-07-29T04:03:23.800Z,16.60
2022-07-29T04:04:22.710Z,16.61
2022-07-29T04:05:22.685Z,16.61
2022-07-29T04:06:22.677Z,16.64
2022-07-29T04:07:22.665Z,16.65
2022-07-29T04:08:22.690Z,16.65
2022-07-29T04:09:22.637Z,16.66
2022-07-29T04:10:28.299Z,16.69
2022-07-29T04:11:23.618Z,16.69
2022-07-29T04:12:22.623Z,16.71
2022-07-29T04:13:22.598Z,16.72
2022-07-29T04:14:22.618Z,16.72
2022-07-29T04:15:22.579Z,16.72
2022-07-29T04:16:22.748Z,16.72
2022-07-29T04:17:22.569Z,16.74
2022-07-29T04:18:22.549Z,16.74
2022-07-29T04:19:22.550Z,16.75
2022-07-29T04:20:22.538Z,16.75
2022-07-29T04:21:22.523Z,16.76
2022-07-29T04:22:22.490Z,16.76
2022-07-29T04:23:22.501Z,16.78
2022-07-29T04:24:22.481Z,16.76
2022-07-29T04:25:22.492Z,16.76
2022-07-29T04:26:22.473Z,16.76
2022-07-29T04:27:22.453Z,16.76
2022-07-29T04:28:22.446Z,16.78
2022-07-29T04:29:22.425Z,16.76
2022-07-29T04:30:22.409Z,16.78
2022-07-29T04:31:25.743Z,16.78
2022-07-29T04:32:22.400Z,16.83
2022-07-29T04:33:22.410Z,16.81
2022-07-29T04:34:22.370Z,16.83
2022-07-29T04:35:22.361Z,16.83
2022-07-29T04:36:29.388Z,16.86
2022-07-29T04:37:23.397Z,16.87
2022-07-29T04:38:22.321Z,16.87
2022-07-29T04:39:23.226Z,16.87
2022-07-29T04:40:22.283Z,16.89
2022-07-29T04:41:22.293Z,16.90
2022-07-29T04:42:27.680Z,16.91
2022-07-29T04:43:23.664Z,16.90
2022-07-29T04:44:22.275Z,16.93
2022-07-29T04:45:23.482Z,16.96
2022-07-29T04:46:22.279Z,16.96
2022-07-29T04:47:22.237Z,16.97
2022-07-29T04:48:28.239Z,16.99
2022-07-29T04:49:23.939Z,17.01
2022-07-29T04:50:22.188Z,17.01
2022-07-29T04:51:22.193Z,17.01
2022-07-29T04:52:22.162Z,17.04
2022-07-29T04:53:22.169Z,17.05
2022-07-29T04:54:22.154Z,17.05
2022-07-29T04:55:22.908Z,17.09
2022-07-29T04:56:22.146Z,17.09
2022-07-29T04:57:22.115Z,17.12
2022-07-29T04:58:22.124Z,17.12
2022-07-29T04:59:22.093Z,17.15
2022-07-29T05:00:22.094Z,17.16
2022-07-29T05:01:23.150Z,17.16
2022-07-29T05:02:22.078Z,17.20
2022-07-29T05:03:22.052Z,17.20
2022-07-29T05:04:22.025Z,17.20
2022-07-29T05:05:22.047Z,17.23
2022-07-29T05:06:22.006Z,17.26
2022-07-29T05:07:22.005Z,17.27
2022-07-29T05:08:21.988Z,17.29
2022-07-29T05:09:21.987Z,17.31
2022-07-29T05:10:21.988Z,17.33
2022-07-29T05:11:24.977Z,17.34
2022-07-29T05:12:22.939Z,17.38
2022-07-29T05:13:21.939Z,17.39
2022-07-29T05:14:21.919Z,17.42
2022-07-29T05:15:21.999Z,17.45
2022-07-29T05:16:21.994Z,17.48
2022-07-29T05:17:21.899Z,17.52
2022-07-29T05:18:21.878Z,17.54
2022-07-29T05:19:21.870Z,17.57
2022-07-29T05:20:21.862Z,17.60
2022-07-29T05:21:21.895Z,17.63
2022-07-29T05:22:21.829Z,17.64
2022-07-29T05:23:21.821Z,17.68
2022-07-29T05:24:21.807Z,17.71
2022-07-29T05:25:21.819Z,17.71
2022-07-29T05:26:21.797Z,17.74
2022-07-29T05:27:21.793Z,17.76
2022-07-29T05:28:21.762Z,17.79
2022-07-29T05:29:44.863Z,17.79
2022-07-29T05:30:22.738Z,17.80
2022-07-29T05:31:21.809Z,17.83
2022-07-29T05:32:21.719Z,17.85
2022-07-29T05:33:36.046Z,17.86
2022-07-29T05:34:22.690Z,17.86
2022-07-29T05:35:21.690Z,17.87
2022-07-29T05:36:21.685Z,17.87
2022-07-29T05:37:21.670Z,17.87
2022-07-29T05:38:21.653Z,17.89
2022-07-29T05:39:21.650Z,17.90
2022-07-29T05:40:21.630Z,17.90
2022-07-29T05:41:21.662Z,17.90
2022-07-29T05:42:21.662Z,17.90
2022-07-29T05:43:21.690Z,17.90
2022-07-29T05:44:21.710Z,17.90
2022-07-29T05:45:21.757Z,17.90
2022-07-29T05:46:21.830Z,17.92
2022-07-29T05:47:21.786Z,17.90
2022-07-29T05:48:21.735Z,17.92
2022-07-29T05:49:23.128Z,17.95
2022-07-29T05:50:22.503Z,17.98
2022-07-29T05:51:21.515Z,17.98
2022-07-29T05:52:21.500Z,18.00
2022-07-29T05:53:21.559Z,18.03
2022-07-29T05:54:21.476Z,18.04
2022-07-29T05:55:21.546Z,18.04
2022-07-29T05:56:21.448Z,18.07
2022-07-29T05:57:21.463Z,18.07
2022-07-29T05:58:21.424Z,18.08
2022-07-29T05:59:21.422Z,18.08
2022-07-29T06:00:21.415Z,18.11
2022-07-29T06:01:21.429Z,18.11
2022-07-29T06:02:21.397Z,18.15
2022-07-29T06:03:21.388Z,18.15
2022-07-29T06:04:21.531Z,18.18
2022-07-29T06:05:21.366Z,18.18
2022-07-29T06:06:21.336Z,18.19
2022-07-29T06:07:21.360Z,18.20
2022-07-29T06:08:21.344Z,18.20
2022-07-29T06:09:21.319Z,18.23
2022-07-29T06:10:24.956Z,18.23
2022-07-29T06:11:22.331Z,18.23
2022-07-29T06:12:21.276Z,18.23
2022-07-29T06:13:21.290Z,18.28
2022-07-29T06:14:21.253Z,18.28
2022-07-29T06:15:21.247Z,18.29
2022-07-29T06:16:30.293Z,18.31
2022-07-29T06:17:22.280Z,18.31
2022-07-29T06:18:21.219Z,18.33
2022-07-29T06:19:21.199Z,18.35
2022-07-29T06:20:27.232Z,18.38
2022-07-29T06:21:22.179Z,18.38
2022-07-29T06:22:21.161Z,18.43
2022-07-29T06:23:21.167Z,18.44
2022-07-29T06:24:21.177Z,18.45
2022-07-29T06:25:21.140Z,18.47
2022-07-29T06:26:30.797Z,18.49
2022-07-29T06:27:22.118Z,18.50
2022-07-29T06:28:21.092Z,18.49
2022-07-29T06:29:21.102Z,18.53
2022-07-29T06:30:21.071Z,18.53
2022-07-29T06:31:21.167Z,18.55
2022-07-29T06:32:22.779Z,18.56
2022-07-29T06:33:21.072Z,18.58
2022-07-29T06:34:21.019Z,18.58
2022-07-29T06:35:39.329Z,18.59
2022-07-29T06:36:22.867Z,18.60
2022-07-29T06:37:21.012Z,18.62
2022-07-29T06:38:30.872Z,18.63
2022-07-29T06:39:22.147Z,18.66
2022-07-29T06:40:20.965Z,18.66
2022-07-29T06:41:20.964Z,18.71
2022-07-29T06:42:20.932Z,18.74
2022-07-29T06:43:20.952Z,18.74
2022-07-29T06:44:20.921Z,18.75
2022-07-29T06:45:20.923Z,18.78
2022-07-29T06:46:21.215Z,18.81
2022-07-29T06:47:20.901Z,18.86
2022-07-29T06:48:20.872Z,18.90
2022-07-29T06:49:20.909Z,18.92
2022-07-29T06:50:20.854Z,18.95
2022-07-29T06:51:22.274Z,18.98
2022-07-29T06:52:20.831Z,18.96
2022-07-29T06:53:20.824Z,18.98
2022-07-29T06:54:20.816Z,18.99
2022-07-29T06:55:25.060Z,19.04
2022-07-29T06:56:20.784Z,19.04
2022-07-29T06:57:20.783Z,19.04
2022-07-29T06:58:20.760Z,19.07
2022-07-29T06:59:28.373Z,19.08
2022-07-29T07:00:21.735Z,19.11
2022-07-29T07:01:20.800Z,19.12
2022-07-29T07:02:20.769Z,19.15
2022-07-29T07:03:20.702Z,19.15
2022-07-29T07:04:21.205Z,19.18
2022-07-29T07:05:20.695Z,19.18
2022-07-29T07:06:20.675Z,19.19
2022-07-29T07:07:20.674Z,19.21
2022-07-29T07:08:20.657Z,19.22
2022-07-29T07:09:20.683Z,19.27
2022-07-29T07:10:20.630Z,19.29
2022-07-29T07:11:20.620Z,19.31
2022-07-29T07:12:20.595Z,19.33
2022-07-29T07:13:20.598Z,19.34
2022-07-29T07:14:21.302Z,19.37
2022-07-29T07:15:20.588Z,19.36
2022-07-29T07:16:20.634Z,19.40
2022-07-29T07:17:20.559Z,19.44
2022-07-29T07:18:20.539Z,19.45
2022-07-29T07:19:20.539Z,19.47
2022-07-29T07:20:20.623Z,19.49
2022-07-29T07:21:20.512Z,19.52
2022-07-29T07:22:20.487Z,19.54
2022-07-29T07:23:20.519Z,19.56
2022-07-29T07:24:20.487Z,19.58
2022-07-29T07:25:20.471Z,19.58
2022-07-29T07:26:27.554Z,19.62
2022-07-29T07:27:20.470Z,19.62
2022-07-29T07:28:24.767Z,19.59
2022-07-29T07:29:20.432Z,19.62
2022-07-29T07:30:20.411Z,19.62
2022-07-29T07:31:20.463Z,19.63
2022-07-29T07:32:20.519Z,19.66
2022-07-29T07:33:20.398Z,19.69
2022-07-29T07:34:28.404Z,19.73
2022-07-29T07:35:21.364Z,19.76
2022-07-29T07:36:20.353Z,19.77
2022-07-29T07:37:20.355Z,19.79
2022-07-29T07:38:20.323Z,19.84
2022-07-29T07:39:20.339Z,19.88
2022-07-29T07:40:20.303Z,19.92
2022-07-29T07:41:20.325Z,20.00
2022-07-29T07:42:20.288Z,20.03
2022-07-29T07:43:20.275Z,20.11
2022-07-29T07:44:20.725Z,20.18
2022-07-29T07:45:20.256Z,20.24
2022-07-29T07:46:20.294Z,20.32
2022-07-29T07:47:20.236Z,20.39
2022-07-29T07:48:20.208Z,20.44
2022-07-29T07:49:20.317Z,20.52
2022-07-29T07:50:20.191Z,20.59
2022-07-29T07:51:20.207Z,20.60
2022-07-29T07:52:20.184Z,20.63
2022-07-29T07:53:20.168Z,20.69
2022-07-29T07:54:20.664Z,20.72
2022-07-29T07:55:20.148Z,20.81
2022-07-29T07:56:20.127Z,20.87
2022-07-29T07:57:20.135Z,20.93
2022-07-29T07:58:20.109Z,20.99
2022-07-29T07:59:20.147Z,21.02
2022-07-29T08:00:20.067Z,21.06
2022-07-29T08:01:20.248Z,21.12
2022-07-29T08:02:20.289Z,21.18
2022-07-29T08:03:20.059Z,21.22
2022-07-29T08:04:26.645Z,21.24
2022-07-29T08:05:21.027Z,21.29
2022-07-29T08:06:20.020Z,21.30
2022-07-29T08:07:20.033Z,21.36
2022-07-29T08:08:19.991Z,21.35
2022-07-29T08:09:29.439Z,21.36
2022-07-29T08:10:20.975Z,21.40
2022-07-29T08:11:19.971Z,21.42
2022-07-29T08:12:19.968Z,21.40
2022-07-29T08:13:19.951Z,21.40
2022-07-29T08:14:19.923Z,21.42
2022-07-29T08:15:19.924Z,21.43
2022-07-29T08:16:19.907Z,21.46
2022-07-29T08:17:19.897Z,21.48
2022-07-29T08:18:19.891Z,21.52
2022-07-29T08:19:19.885Z,21.57
2022-07-29T08:20:19.905Z,21.58
2022-07-29T08:21:19.851Z,21.64
2022-07-29T08:22:19.833Z,21.73
2022-07-29T08:23:19.832Z,21.85
2022-07-29T08:24:19.869Z,21.98
2022-07-29T08:25:19.804Z,22.07
2022-07-29T08:26:19.795Z,22.14
2022-07-29T08:27:41.878Z,22.20
2022-07-29T08:28:20.772Z,22.26
2022-07-29T08:29:20.216Z,22.32
2022-07-29T08:30:19.805Z,22.36
2022-07-29T08:31:19.795Z,22.36
2022-07-29T08:32:43.514Z,22.35
2022-07-29T08:33:20.715Z,22.35
2022-07-29T08:34:25.706Z,22.36
2022-07-29T08:35:20.697Z,22.35
2022-07-29T08:36:19.692Z,22.38
2022-07-29T08:37:19.676Z,22.41
2022-07-29T08:38:19.688Z,22.43
2022-07-29T08:39:19.656Z,22.48
2022-07-29T08:40:19.664Z,22.51
2022-07-29T08:41:19.637Z,22.54
2022-07-29T08:42:19.628Z,22.57
2022-07-29T08:43:19.632Z,22.63
2022-07-29T08:44:22.377Z,22.69
2022-07-29T08:45:20.577Z,22.76
2022-07-29T08:46:19.646Z,22.84
2022-07-29T08:47:19.568Z,22.90
2022-07-29T08:48:19.560Z,22.99
2022-07-29T08:49:19.623Z,23.12
2022-07-29T08:50:19.625Z,23.23
2022-07-29T08:51:19.521Z,23.34
2022-07-29T08:52:19.537Z,23.41
2022-07-29T08:53:19.493Z,23.54
2022-07-29T08:54:19.534Z,23.68
2022-07-29T08:55:21.448Z,23.78
2022-07-29T08:56:19.487Z,23.88
2022-07-29T08:57:19.469Z,23.99
2022-07-29T08:58:23.008Z,24.11
2022-07-29T08:59:20.429Z,24.21
2022-07-29T09:00:19.556Z,24.38
2022-07-29T09:01:19.570Z,24.47
2022-07-29T09:02:19.422Z,24.60
2022-07-29T09:03:19.509Z,24.65
2022-07-29T09:04:19.406Z,24.58
2022-07-29T09:05:19.441Z,24.58
2022-07-29T09:06:19.377Z,24.57
2022-07-29T09:07:19.358Z,24.65
2022-07-29T09:08:19.373Z,24.69
2022-07-29T09:09:19.339Z,24.78
2022-07-29T09:10:19.404Z,24.95
2022-07-29T09:11:19.305Z,25.06
2022-07-29T09:12:28.615Z,25.06
2022-07-29T09:13:20.285Z,25.16
2022-07-29T09:14:19.293Z,25.25
2022-07-29T09:15:19.266Z,25.18
2022-07-29T09:16:43.727Z,25.18
2022-07-29T09:17:20.259Z,25.18
2022-07-29T09:18:19.761Z,25.13
2022-07-29T09:19:20.245Z,25.06
2022-07-29T09:20:19.243Z,25.04
2022-07-29T09:21:19.197Z,24.95
2022-07-29T09:22:19.193Z,24.99
2022-07-29T09:23:24.339Z,25.13
2022-07-29T09:24:20.157Z,25.26
2022-07-29T09:25:19.158Z,25.38
2022-07-29T09:26:19.138Z,25.55
2022-07-29T09:27:19.129Z,25.63
2022-07-29T09:28:19.164Z,25.53
2022-07-29T09:29:19.110Z,25.48
2022-07-29T09:30:31.431Z,25.55
2022-07-29T09:31:20.146Z,25.65
2022-07-29T09:32:19.082Z,25.73
2022-07-29T09:33:19.062Z,25.78
2022-07-29T09:34:19.098Z,25.81
2022-07-29T09:35:19.042Z,25.78
2022-07-29T09:36:19.070Z,25.77
2022-07-29T09:37:19.019Z,25.87
2022-07-29T09:38:19.027Z,26.00
2022-07-29T09:39:18.990Z,26.02
2022-07-29T09:40:18.995Z,25.99
2022-07-29T09:41:19.034Z,25.98
2022-07-29T09:42:18.986Z,25.99
2022-07-29T09:43:18.950Z,26.10
2022-07-29T09:44:19.007Z,26.21
2022-07-29T09:45:18.946Z,26.31
2022-07-29T09:46:18.970Z,26.47
2022-07-29T09:47:18.914Z,26.65
2022-07-29T09:48:18.928Z,26.85
2022-07-29T09:49:18.969Z,26.97
2022-07-29T09:50:18.895Z,27.07
2022-07-29T09:51:21.386Z,27.17
2022-07-29T09:52:18.871Z,27.15
2022-07-29T09:53:19.546Z,27.12
2022-07-29T09:54:18.915Z,27.02
2022-07-29T09:55:19.788Z,26.92
2022-07-29T09:56:18.834Z,26.84
2022-07-29T09:57:18.842Z,26.75
2022-07-29T09:58:18.798Z,26.68
2022-07-29T09:59:18.823Z,26.48
2022-07-29T10:00:18.831Z,26.26
2022-07-29T10:01:18.831Z,26.23
2022-07-29T10:02:22.164Z,26.18
2022-07-29T10:03:19.805Z,26.21
2022-07-29T10:04:18.743Z,26.36
2022-07-29T10:05:18.718Z,26.60
2022-07-29T10:06:18.823Z,26.83
2022-07-29T10:07:18.698Z,27.02
2022-07-29T10:08:18.744Z,27.26
2022-07-29T10:09:18.703Z,27.35
2022-07-29T10:10:18.667Z,27.40
2022-07-29T10:11:18.679Z,27.39
2022-07-29T10:12:18.675Z,27.30
2022-07-29T10:13:18.831Z,27.05
2022-07-29T10:14:18.668Z,26.89
2022-07-29T10:15:18.606Z,26.74
2022-07-29T10:16:18.680Z,26.73
2022-07-29T10:17:18.603Z,26.71
2022-07-29T10:18:18.727Z,26.77
2022-07-29T10:19:18.563Z,26.85
2022-07-29T10:20:18.574Z,26.88
2022-07-29T10:21:35.326Z,26.83
2022-07-29T10:22:50.448Z,26.77
2022-07-29T10:23:19.527Z,26.78
2022-07-29T10:24:18.523Z,26.78
2022-07-29T10:25:18.528Z,26.89
2022-07-29T10:26:18.507Z,27.03
2022-07-29T10:27:18.479Z,27.15
2022-07-29T10:28:18.490Z,27.25
2022-07-29T10:29:18.491Z,27.36
2022-07-29T10:30:18.463Z,27.51
2022-07-29T10:31:18.517Z,27.71
2022-07-29T10:32:18.436Z,27.85
2022-07-29T10:33:18.499Z,27.93
2022-07-29T10:34:18.528Z,27.92
2022-07-29T10:35:18.499Z,27.77
2022-07-29T10:36:18.638Z,27.65
2022-07-29T10:37:18.556Z,27.55
2022-07-29T10:38:18.593Z,27.39
2022-07-29T10:39:18.611Z,27.14
2022-07-29T10:40:18.657Z,26.92
2022-07-29T10:41:19.597Z,26.80
2022-07-29T10:42:20.127Z,26.74
2022-07-29T10:43:19.332Z,26.83
2022-07-29T10:44:19.467Z,26.95
2022-07-29T10:45:18.300Z,27.07
2022-07-29T10:46:18.353Z,27.22
2022-07-29T10:47:18.263Z,27.29
2022-07-29T10:48:18.287Z,27.32
2022-07-29T10:49:18.350Z,27.22
2022-07-29T10:50:18.285Z,27.25
2022-07-29T10:51:18.223Z,27.36
2022-07-29T10:52:18.226Z,27.47
2022-07-29T10:53:18.208Z,27.52
2022-07-29T10:54:18.227Z,27.60
2022-07-29T10:55:18.241Z,27.74
2022-07-29T10:56:18.241Z,27.95
2022-07-29T10:57:18.171Z,28.12
2022-07-29T10:58:18.241Z,28.33
2022-07-29T10:59:18.128Z,28.49
2022-07-29T11:00:18.156Z,28.52
2022-07-29T11:01:18.108Z,28.35
2022-07-29T11:02:41.146Z,27.98
2022-07-29T11:03:19.220Z,27.85
2022-07-29T11:04:18.096Z,27.78
2022-07-29T11:05:18.088Z,27.78
2022-07-29T11:06:18.155Z,27.74
2022-07-29T11:07:19.301Z,27.73
2022-07-29T11:08:20.287Z,27.67
2022-07-29T11:09:18.059Z,27.58
2022-07-29T11:10:18.047Z,27.42
2022-07-29T11:11:18.046Z,27.36
2022-07-29T11:12:18.008Z,27.30
2022-07-29T11:13:17.988Z,27.30
2022-07-29T11:14:18.016Z,27.27
2022-07-29T11:15:18.007Z,27.18
2022-07-29T11:16:17.966Z,27.07
2022-07-29T11:17:17.943Z,26.88
2022-07-29T11:18:17.944Z,26.83
2022-07-29T11:19:26.220Z,26.84
2022-07-29T11:20:18.940Z,26.85
2022-07-29T11:21:17.912Z,26.88
2022-07-29T11:22:19.091Z,26.85
2022-07-29T11:23:18.883Z,26.88
2022-07-29T11:24:18.555Z,26.85
2022-07-29T11:25:17.893Z,26.89
2022-07-29T11:26:18.567Z,26.88
2022-07-29T11:27:19.638Z,26.89
2022-07-29T11:28:23.086Z,26.89
2022-07-29T11:29:18.817Z,26.89
2022-07-29T11:30:17.845Z,26.89
2022-07-29T11:31:17.796Z,26.90
2022-07-29T11:32:18.358Z,26.80
2022-07-29T11:33:18.788Z,26.71
2022-07-29T11:34:18.776Z,26.59
2022-07-29T11:35:18.896Z,26.51
2022-07-29T11:36:17.748Z,26.44
2022-07-29T11:37:18.015Z,26.36
2022-07-29T11:38:17.748Z,26.31
2022-07-29T11:39:17.707Z,26.23
2022-07-29T11:40:18.295Z,26.25
2022-07-29T11:41:17.688Z,26.19
2022-07-29T11:42:28.480Z,26.13
2022-07-29T11:43:19.384Z,26.07
2022-07-29T11:44:18.059Z,26.05
2022-07-29T11:45:42.624Z,26.06
2022-07-29T11:46:18.665Z,26.05
2022-07-29T11:47:18.638Z,26.09
2022-07-29T11:48:28.912Z,26.18
2022-07-29T11:49:18.654Z,26.28
2022-07-29T11:50:17.603Z,26.38
2022-07-29T11:51:17.589Z,26.53
2022-07-29T11:52:17.567Z,26.71
2022-07-29T11:53:17.548Z,26.88
2022-07-29T11:54:17.548Z,27.03
2022-07-29T11:55:17.742Z,27.14
2022-07-29T11:56:17.520Z,27.12
2022-07-29T11:57:17.517Z,27.03
2022-07-29T11:58:17.501Z,26.97
2022-07-29T11:59:17.489Z,26.85
2022-07-29T12:00:18.688Z,26.84
2022-07-29T12:01:17.481Z,26.77
2022-07-29T12:02:37.138Z,26.71
2022-07-29T12:03:18.509Z,26.70
2022-07-29T12:04:17.440Z,26.70
2022-07-29T12:05:35.961Z,26.62
2022-07-29T12:06:20.912Z,26.56
2022-07-29T12:07:17.402Z,26.48
2022-07-29T12:08:17.415Z,26.38
2022-07-29T12:09:17.373Z,26.33
2022-07-29T12:10:19.958Z,26.22
2022-07-29T12:11:20.555Z,26.16
2022-07-29T12:12:17.362Z,26.07
2022-07-29T12:13:17.337Z,25.99
2022-07-29T12:14:17.340Z,25.95
2022-07-29T12:15:17.304Z,25.87
2022-07-29T12:16:25.911Z,25.80
2022-07-29T12:17:18.294Z,25.68
2022-07-29T12:18:18.411Z,25.62
2022-07-29T12:19:17.277Z,25.58
2022-07-29T12:20:17.266Z,25.53
2022-07-29T12:21:17.265Z,25.50
2022-07-29T12:22:17.258Z,25.46
2022-07-29T12:23:17.251Z,25.43
2022-07-29T12:24:17.229Z,25.41
2022-07-29T12:25:32.445Z,25.36
2022-07-29T12:26:21.698Z,25.29
2022-07-29T12:27:18.189Z,25.21
2022-07-29T12:28:18.588Z,25.16
2022-07-29T12:29:20.488Z,25.13
2022-07-29T12:30:18.185Z,25.16
2022-07-29T12:31:43.727Z,25.14
2022-07-29T12:32:19.749Z,25.13
2022-07-29T12:33:17.121Z,25.11
2022-07-29T12:34:17.124Z,25.07
2022-07-29T12:35:17.098Z,25.01
2022-07-29T12:36:17.896Z,24.96
2022-07-29T12:37:17.090Z,24.96
2022-07-29T12:38:17.074Z,24.96
2022-07-29T12:39:17.053Z,24.95
2022-07-29T12:40:17.058Z,24.98
2022-07-29T12:41:17.042Z,24.99
2022-07-29T12:42:18.490Z,24.96
2022-07-29T12:43:17.025Z,24.95
2022-07-29T12:44:17.016Z,24.98
2022-07-29T12:45:16.990Z,25.01
2022-07-29T12:46:17.062Z,25.01
2022-07-29T12:47:17.007Z,25.04
2022-07-29T12:48:16.965Z,25.03
2022-07-29T12:49:16.985Z,25.03
2022-07-29T12:50:16.938Z,25.01
2022-07-29T12:51:16.933Z,24.96
2022-07-29T12:52:16.925Z,24.96